Terminal Aerodrome Forecast
Issued by NWS Sterling, VA

Current Version | Previous Version | Graphics & Text | Print | Product List | Glossary On
Versions: 1 2 3 4 5 6 7 8 9 10 11 12 13 14 15 16 17 18 19 20 21 22 23 24
752
FTUS41 KLWX 041734
TAFDCA
TAF
KDCA 041734Z 0418/0518 34010G18KT P6SM BKN050
     FM050600 33012G22KT 3SM -SN SCT025 BKN050
     FM050900 34012G22KT P6SM BKN050
     FM051500 33013G20KT P6SM SCT050=

USA.gov is the U.S. government's official web portal to all federal, state and local government web resources and services.